Time;durP1;ratioP1;P1;durP2;ratioP2;P2;SDS_P1;SDS_P2;PMS_P1;PMS_P2;Temp;Humidity;BMP_temperature;BMP_pressure;BME280_temperature;BME280_humidity;BME280_pressure;Samples;Min_cycle;Max_cycle;Signal;HPM_P1;HPM_P2
2021/06/26 00:02:26;;;;;;;8.50;7.45;;;;;;;17.82;74.53;99963.60;254218;1104;116319;-72
2021/06/26 00:07:30;;;;;;;9.78;7.73;;;;;;;17.81;74.76;99961.98;255497;1104;116968;-72
2021/06/26 00:12:33;;;;;;;11.43;8.55;;;;;;;17.76;74.87;99967.39;254416;1098;117608;-72
2021/06/26 00:17:36;;;;;;;11.70;8.75;;;;;;;17.77;74.67;99952.83;256420;1104;115525;-72
2021/06/26 00:22:40;;;;;;;9.83;8.18;;;;;;;17.85;74.85;99951.45;256903;1104;117215;-72
2021/06/26 00:27:43;;;;;;;10.05;7.98;;;;;;;17.94;74.76;99949.00;254503;1104;116802;-72
2021/06/26 00:32:47;;;;;;;10.75;7.78;;;;;;;17.99;74.66;99940.88;256151;1104;116375;-72
2021/06/26 00:37:51;;;;;;;7.68;7.05;;;;;;;18.00;74.83;99945.19;254217;1104;116818;-71
2021/06/26 00:42:55;;;;;;;9.65;8.65;;;;;;;17.94;74.84;99946.30;254397;1104;115942;-72
2021/06/26 00:47:59;;;;;;;10.60;8.38;;;;;;;17.89;74.51;99946.32;254199;1104;115964;-72
2021/06/26 00:53:02;;;;;;;10.58;8.15;;;;;;;17.86;74.50;99961.16;254755;1104;116594;-72
2021/06/26 00:58:05;;;;;;;12.05;9.03;;;;;;;17.87;74.75;99962.78;254402;1104;115980;-72
2021/06/26 01:03:11;;;;;;;8.00;7.23;;;;;;;17.82;74.45;99962.80;255338;1104;114902;-72
2021/06/26 01:08:15;;;;;;;8.68;7.78;;;;;;;17.81;74.40;99972.77;254350;1104;115815;-72
2021/06/26 01:13:19;;;;;;;12.78;8.73;;;;;;;17.75;74.39;99979.27;254389;1099;115628;-72
2021/06/26 01:18:22;;;;;;;12.37;8.17;;;;;;;17.66;74.47;99980.94;254459;1104;114911;-72
2021/06/26 01:23:26;;;;;;;10.15;8.85;;;;;;;17.64;74.62;99993.85;254507;1104;114798;-72
2021/06/26 01:28:32;;;;;;;8.80;8.10;;;;;;;17.67;74.83;99995.23;254427;1104;115287;-72
2021/06/26 01:33:35;;;;;;;15.53;7.70;;;;;;;17.68;74.82;99980.66;254475;1104;114969;-73
2021/06/26 01:38:39;;;;;;;10.10;9.18;;;;;;;17.67;75.12;99979.05;254457;1104;115204;-72
2021/06/26 01:43:42;;;;;;;10.13;8.98;;;;;;;17.73;75.20;99981.42;254424;1104;115398;-72
2021/06/26 01:48:46;;;;;;;12.83;9.90;;;;;;;17.69;74.89;99980.39;254231;1104;115484;-72
2021/06/26 01:53:49;;;;;;;11.28;8.60;;;;;;;17.68;74.90;99978.78;255019;1104;115571;-72
2021/06/26 01:58:52;;;;;;;9.73;8.68;;;;;;;17.66;75.00;99975.55;255156;1097;115277;-72
2021/06/26 02:03:55;;;;;;;10.38;9.38;;;;;;;17.59;74.84;99984.97;256314;1104;114355;-72
2021/06/26 02:08:58;;;;;;;10.70;9.25;;;;;;;17.61;75.26;99977.42;254971;1104;114962;-72
2021/06/26 02:14:01;;;;;;;10.53;9.50;;;;;;;17.60;75.36;99979.30;254340;1100;115417;-72
2021/06/26 02:19:04;;;;;;;12.03;8.78;;;;;;;17.66;75.16;99978.24;255382;1104;116016;-72
2021/06/26 02:24:07;;;;;;;11.30;8.60;;;;;;;17.65;75.06;99979.33;257427;1104;116129;-72
2021/06/26 02:29:10;;;;;;;11.65;10.15;;;;;;;17.63;75.67;99981.45;255194;1099;116024;-72
2021/06/26 02:34:15;;;;;;;8.53;7.70;;;;;;;17.60;75.10;99979.30;254362;1104;115422;-72
2021/06/26 02:39:19;;;;;;;11.38;9.88;;;;;;;17.57;75.10;99977.16;254453;1104;115327;-72
2021/06/26 02:44:22;;;;;;;11.75;10.15;;;;;;;17.55;75.58;99973.12;254227;1104;115417;-72
2021/06/26 02:49:26;;;;;;;10.13;8.83;;;;;;;17.52;75.30;99979.86;254364;1099;115842;-72
2021/06/26 02:54:30;;;;;;;10.60;9.37;;;;;;;17.43;75.20;99981.50;254893;1100;114909;-72
2021/06/26 02:59:35;;;;;;;14.73;8.85;;;;;;;17.45;75.51;99973.95;254383;1104;216432;-72
2021/06/26 03:04:38;;;;;;;11.38;10.15;;;;;;;17.51;75.75;99962.08;254213;1104;115920;-72
2021/06/26 03:09:42;;;;;;;14.25;10.80;;;;;;;17.60;75.77;99976.61;254228;1104;115460;-72
2021/06/26 03:14:45;;;;;;;13.05;11.13;;;;;;;17.76;76.10;99969.28;254430;1104;115641;-72
2021/06/26 03:19:49;;;;;;;13.80;10.30;;;;;;;17.94;75.73;99965.17;254287;1104;115995;-72
2021/06/26 03:24:52;;;;;;;10.53;9.48;;;;;;;18.06;75.69;99974.53;254890;1099;116370;-72
2021/06/26 03:29:55;;;;;;;16.45;10.70;;;;;;;18.20;75.48;99980.14;254553;1104;116354;-72
2021/06/26 03:34:59;;;;;;;11.57;10.33;;;;;;;18.26;75.17;99978.22;254539;1104;117263;-72
2021/06/26 03:40:03;;;;;;;12.30;10.90;;;;;;;18.34;74.96;99980.33;254660;1104;116961;-72
2021/06/26 03:45:08;;;;;;;13.90;9.55;;;;;;;18.46;75.18;99989.68;254236;1104;116482;-72
2021/06/26 03:50:12;;;;;;;11.58;10.25;;;;;;;18.57;74.58;99986.92;254787;1104;117235;-72
2021/06/26 03:55:16;;;;;;;14.98;10.18;;;;;;;18.63;74.25;99989.34;254439;1104;115877;-72
2021/06/26 04:00:20;;;;;;;15.45;11.28;;;;;;;18.81;74.03;99998.64;254551;1104;115723;-73
2021/06/26 04:05:23;;;;;;;10.97;9.97;;;;;;;18.92;73.80;99994.77;254455;1104;116148;-73
2021/06/26 04:10:27;;;;;;;12.20;11.00;;;;;;;19.04;73.29;99997.09;254480;1104;115369;-73
2021/06/26 04:15:32;;;;;;;11.78;10.65;;;;;;;19.28;73.22;100003.33;254768;1104;115208;-73
2021/06/26 04:20:36;;;;;;;12.63;11.33;;;;;;;19.59;73.09;100000.33;254407;1104;115250;-73
2021/06/26 04:25:40;;;;;;;12.77;10.47;;;;;;;19.63;72.84;100017.60;254381;1104;116614;-73
2021/06/26 04:30:43;;;;;;;10.88;9.80;;;;;;;19.53;72.54;100012.33;255268;1104;115839;-73
2021/06/26 04:35:46;;;;;;;19.33;9.83;;;;;;;19.48;72.61;100016.66;256421;1104;115587;-72
2021/06/26 04:40:51;;;;;;;11.98;10.80;;;;;;;19.45;72.40;100027.23;257264;1104;115140;-73
2021/06/26 04:45:59;;;;;;;10.38;9.40;;;;;;;19.52;72.61;100035.85;257289;1104;114937;-73
2021/06/26 04:51:02;;;;;;;13.17;10.60;;;;;;;19.57;72.81;100041.18;256529;1104;114805;-72
2021/06/26 04:56:05;;;;;;;12.83;11.47;;;;;;;19.59;72.15;100043.60;255283;1104;115718;-73
2021/06/26 05:01:09;;;;;;;11.90;10.23;;;;;;;19.60;71.91;100045.22;255457;1104;115847;-73
2021/06/26 05:06:12;;;;;;;11.75;10.55;;;;;;;19.61;72.38;100041.42;255331;1104;115870;-73
2021/06/26 05:11:15;;;;;;;11.10;9.25;;;;;;;19.60;72.02;100046.02;254352;1103;115779;-72
2021/06/26 05:16:17;;;;;;;11.68;10.53;;;;;;;19.76;72.18;100036.66;255774;1099;116503;-72
2021/06/26 05:21:21;;;;;;;13.25;10.38;;;;;;;20.06;71.87;100031.98;254347;1100;117301;-72
2021/06/26 05:26:23;;;;;;;13.25;11.40;;;;;;;20.42;71.74;100035.86;255030;1104;116139;-72
2021/06/26 05:31:27;;;;;;;10.88;9.73;;;;;;;20.73;71.01;100041.63;254981;1104;116347;-70
2021/06/26 05:36:30;;;;;;;12.15;10.93;;;;;;;20.85;70.95;100050.09;257248;1104;115553;-74
2021/06/26 05:41:33;;;;;;;11.53;10.35;;;;;;;20.96;70.11;100044.52;255503;1104;116176;-70
2021/06/26 05:46:36;;;;;;;12.33;11.23;;;;;;;21.07;70.28;100046.78;254113;1104;116300;-71
2021/06/26 05:51:39;;;;;;;15.88;11.78;;;;;;;21.11;70.16;100049.67;254770;1104;115963;-72
2021/06/26 05:56:41;;;;;;;12.70;11.58;;;;;;;21.15;69.60;100043.37;257324;1104;115212;-74
2021/06/26 06:01:44;;;;;;;12.63;11.00;;;;;;;21.13;69.62;100039.34;254509;1100;115889;-71
2021/06/26 06:06:46;;;;;;;12.35;10.95;;;;;;;21.14;69.44;100041.76;255207;1104;115531;-73
2021/06/26 06:11:48;;;;;;;12.53;11.38;;;;;;;21.10;69.36;100043.45;255809;1104;115220;-72
2021/06/26 06:16:51;;;;;;;14.30;12.40;;;;;;;21.30;69.22;100039.63;254421;1104;117231;-73
2021/06/26 06:21:56;;;;;;;20.03;12.88;;;;;;;21.69;69.08;100041.91;254678;1104;115695;-75
2021/06/26 06:26:59;;;;;;;14.13;12.80;;;;;;;21.90;68.70;100049.63;257161;1104;115343;-71
2021/06/26 06:32:02;;;;;;;15.20;13.60;;;;;;;21.96;68.50;100051.14;257184;1104;115541;-72
2021/06/26 06:37:05;;;;;;;15.50;13.63;;;;;;;21.85;68.27;100051.34;257410;1104;117422;-72
2021/06/26 06:42:07;;;;;;;15.35;14.05;;;;;;;21.82;68.15;100051.13;257423;1104;117471;-72
2021/06/26 06:47:09;;;;;;;22.27;20.10;;;;;;;21.76;67.97;100050.42;257195;1104;117201;-72
2021/06/26 06:52:12;;;;;;;21.10;19.10;;;;;;;21.70;67.77;100057.08;257222;1104;116968;-73
2021/06/26 06:57:23;;;;;;;21.77;19.65;;;;;;;21.67;67.70;100065.01;257168;1104;116747;-75
2021/06/26 07:02:29;;;;;;;20.33;18.20;;;;;;;21.96;67.48;100078.29;256351;1100;117326;-77
2021/06/26 07:07:35;;;;;;;20.77;18.67;;;;;;;22.25;67.57;100078.00;254402;1099;118635;-77
2021/06/26 07:12:39;;;;;;;21.93;19.85;;;;;;;22.31;67.25;100083.02;255617;1104;118568;-77
2021/06/26 07:17:42;;;;;;;19.93;18.03;;;;;;;22.39;67.23;100085.00;254557;1104;118005;-75
2021/06/26 07:22:46;;;;;;;21.80;17.90;;;;;;;22.51;67.04;100090.73;254205;1099;116419;-77
2021/06/26 07:27:49;;;;;;;19.55;17.68;;;;;;;23.24;66.92;100090.67;253982;1104;116340;-77
2021/06/26 07:32:51;;;;;;;21.08;19.03;;;;;;;23.82;65.74;100091.38;254263;1104;116763;-72
2021/06/26 07:37:53;;;;;;;18.10;16.45;;;;;;;24.48;65.34;100084.03;254145;1104;116510;-73
2021/06/26 07:42:57;;;;;;;13.13;12.05;;;;;;;24.87;63.87;100082.30;254268;1104;116576;-76
2021/06/26 07:47:59;;;;;;;14.05;12.60;;;;;;;25.25;63.32;100076.98;253981;1104;116824;-74
2021/06/26 07:53:02;;;;;;;12.43;11.20;;;;;;;25.59;62.22;100073.38;253952;1100;116167;-74
2021/06/26 07:58:05;;;;;;;10.38;9.48;;;;;;;26.00;61.85;100071.92;254206;1104;116880;-74
2021/06/26 08:03:07;;;;;;;9.40;8.50;;;;;;;26.22;60.75;100060.73;254077;1103;116405;-74
2021/06/26 08:08:11;;;;;;;13.13;8.93;;;;;;;26.62;59.34;100054.83;254751;1104;116912;-76
2021/06/26 08:13:14;;;;;;;9.88;8.50;;;;;;;26.91;59.82;100053.94;254617;1104;116002;-75
2021/06/26 08:18:17;;;;;;;9.23;8.33;;;;;;;27.33;58.58;100046.47;254023;1104;117096;-75
2021/06/26 08:23:20;;;;;;;8.43;7.57;;;;;;;27.36;57.86;100060.28;254156;1098;213791;-76
2021/06/26 08:28:26;;;;;;;7.13;6.63;;;;;;;26.78;56.69;100056.63;255328;1104;114814;-76
2021/06/26 08:33:29;;;;;;;7.60;6.88;;;;;;;26.93;56.98;100051.66;254656;1104;116313;-76
2021/06/26 08:38:33;;;;;;;6.20;5.65;;;;;;;27.13;56.32;100051.67;254346;1104;116089;-73
2021/06/26 08:43:36;;;;;;;6.00;4.90;;;;;;;27.19;55.93;100051.47;254684;1104;115709;-76
2021/06/26 08:48:40;;;;;;;12.48;6.53;;;;;;;27.57;55.95;100053.91;257124;1104;116076;-76
2021/06/26 08:53:43;;;;;;;7.40;6.70;;;;;;;27.07;54.96;100053.02;257181;1103;115127;-77
2021/06/26 08:58:45;;;;;;;5.20;4.80;;;;;;;26.46;54.88;100058.17;257192;1104;115168;-77
2021/06/26 09:03:48;;;;;;;5.65;5.30;;;;;;;26.34;54.96;100051.82;255036;1096;115937;-79
2021/06/26 09:08:51;;;;;;;4.43;4.13;;;;;;;25.83;54.50;100049.05;256544;1104;115973;-79
2021/06/26 09:13:54;;;;;;;5.50;5.08;;;;;;;25.95;55.11;100050.28;257194;1104;115493;-79
2021/06/26 09:18:56;;;;;;;6.80;5.45;;;;;;;26.21;54.96;100044.66;257304;1104;115648;-76
2021/06/26 09:24:11;;;;;;;4.25;3.95;;;;;;;26.53;54.76;100049.45;256355;1104;116010;-75
2021/06/26 09:29:16;;;;;;;4.77;4.47;;;;;;;26.73;53.77;100037.69;254230;1104;116882;-74
2021/06/26 09:34:21;;;;;;;4.53;4.20;;;;;;;26.99;53.60;100034.73;254198;1104;114919;-73
2021/06/26 09:39:36;;;;;;;4.43;4.10;;;;;;;27.19;53.16;100035.05;254670;1098;115751;-73
2021/06/26 09:44:49;;;;;;;3.97;3.77;;;;;;;26.95;51.39;100033.81;254206;1104;114978;-74
2021/06/26 09:49:52;;;;;;;4.05;3.70;;;;;;;27.00;51.21;100030.87;254145;1104;115349;-74
2021/06/26 09:54:54;;;;;;;3.90;3.60;;;;;;;27.32;51.54;100040.19;257138;1104;116095;-74
2021/06/26 09:59:58;;;;;;;6.10;4.05;;;;;;;27.34;50.01;100037.91;257220;1104;114685;-74
2021/06/26 10:05:02;;;;;;;3.77;3.53;;;;;;;27.30;49.70;100030.72;257219;1104;115470;-75
2021/06/26 10:10:12;;;;;;;3.13;2.83;;;;;;;27.53;49.42;100029.15;256369;1098;116297;-74
2021/06/26 10:15:17;;;;;;;5.55;3.13;;;;;;;27.61;48.53;100031.02;254152;1104;115607;-73
2021/06/26 10:20:22;;;;;;;3.25;3.05;;;;;;;27.64;47.68;100035.81;255666;1104;115669;-74
2021/06/26 10:25:37;;;;;;;2.97;2.73;;;;;;;27.53;47.72;100029.15;257168;1104;115757;-76
2021/06/26 10:30:41;;;;;;;2.90;2.47;;;;;;;27.53;46.77;100033.83;257143;1104;115058;-78
2021/06/26 10:35:55;;;;;;;2.90;2.70;;;;;;;27.69;47.25;100027.38;254462;1104;115140;-76
2021/06/26 10:40:58;;;;;;;4.83;2.70;;;;;;;27.80;46.45;100025.80;254283;1104;115134;-73
2021/06/26 10:46:11;;;;;;;4.30;2.53;;;;;;;27.75;46.37;100031.50;254323;1098;114963;-74
2021/06/26 10:51:15;;;;;;;1.68;1.63;;;;;;;27.71;46.27;100033.31;254847;1104;115544;-75
2021/06/26 10:56:19;;;;;;;5.35;2.48;;;;;;;27.32;45.85;100023.77;257384;1104;115577;-78
2021/06/26 11:01:23;;;;;;;3.13;2.40;;;;;;;27.33;45.93;100021.83;257297;1104;116083;-78
2021/06/26 11:06:29;;;;;;;2.83;2.63;;;;;;;27.04;45.21;100020.05;257366;1104;115331;-78
2021/06/26 11:11:42;;;;;;;2.80;2.67;;;;;;;26.87;45.45;100012.00;257520;1104;115138;-79
2021/06/26 11:16:55;;;;;;;2.53;2.43;;;;;;;26.86;45.14;100008.47;257465;1104;115866;-78
2021/06/26 11:22:00;;;;;;;3.03;2.43;;;;;;;26.83;44.56;100017.34;257314;1104;114717;-79
2021/06/26 11:27:04;;;;;;;3.27;3.00;;;;;;;26.96;44.99;100008.05;255839;1104;115600;-78
2021/06/26 11:32:19;;;;;;;8.63;2.68;;;;;;;27.08;44.46;100005.36;257156;1104;116364;-74
2021/06/26 11:37:24;;;;;;;3.45;2.30;;;;;;;27.21;44.14;100008.14;257135;1104;115366;-74
2021/06/26 11:42:27;;;;;;;3.20;2.97;;;;;;;27.29;44.17;99997.07;257147;1104;116638;-74
2021/06/26 11:47:29;;;;;;;2.55;2.35;;;;;;;27.28;43.44;99997.41;256011;1104;115088;-73
2021/06/26 11:52:34;;;;;;;2.63;2.53;;;;;;;27.28;43.69;99991.94;256644;1104;114693;-74
2021/06/26 11:57:37;;;;;;;3.05;2.85;;;;;;;27.37;43.37;99996.17;254868;1104;115715;-73
2021/06/26 12:02:41;;;;;;;2.85;2.73;;;;;;;27.36;43.27;99994.58;256185;1104;115130;-78
2021/06/26 12:07:44;;;;;;;3.05;2.85;;;;;;;27.18;42.68;99987.72;256163;1104;116070;-77
2021/06/26 12:12:48;;;;;;;5.60;3.20;;;;;;;27.15;43.03;99972.78;254498;1104;114889;-74
2021/06/26 12:18:04;;;;;;;7.22;2.88;;;;;;;27.27;43.64;99976.66;256116;1104;116531;-74
2021/06/26 12:23:09;;;;;;;3.13;2.93;;;;;;;27.44;43.43;99973.72;254711;1098;116441;-73
2021/06/26 12:28:13;;;;;;;;;;;;;;;27.44;43.08;99971.78;254187;1104;115161;-74
2021/06/26 12:33:19;;;;;;;4.58;3.55;;;;;;;27.40;43.09;99967.33;256645;1104;103052;-76
2021/06/26 12:38:35;;;;;;;11.03;3.03;;;;;;;27.49;42.92;99959.81;256960;1103;115485;-75
2021/06/26 12:43:40;;;;;;;4.03;3.60;;;;;;;27.43;42.93;99959.23;254849;1098;117251;-74
2021/06/26 12:48:46;;;;;;;3.78;3.28;;;;;;;27.18;43.20;99967.77;254104;1104;115936;-74
2021/06/26 12:53:53;;;;;;;5.33;3.53;;;;;;;27.29;43.35;99955.22;254780;1104;116966;-74
2021/06/26 12:59:07;;;;;;;3.15;2.95;;;;;;;27.45;42.73;99951.48;257239;1103;117498;-74
2021/06/26 13:04:14;;;;;;;3.35;3.00;;;;;;;27.33;42.51;99956.94;257212;1104;115813;-73
2021/06/26 13:09:31;;;;;;;4.80;3.38;;;;;;;27.18;42.79;99954.08;254779;1099;116708;-74
2021/06/26 13:14:39;;;;;;;5.60;3.43;;;;;;;26.83;43.38;99946.23;256245;1103;114921;-72
2021/06/26 13:19:43;;;;;;;3.23;3.00;;;;;;;26.41;43.92;99951.77;257347;1103;116357;-76
2021/06/26 13:25:13;;;;;;;4.13;3.77;;;;;;;26.00;44.59;99949.80;257361;1103;115390;-77
2021/06/26 13:30:18;;;;;;;2.97;2.87;;;;;;;25.83;45.06;99949.93;257173;1104;115315;-76
2021/06/26 13:35:21;;;;;;;3.43;3.23;;;;;;;25.58;45.13;99946.20;257213;1104;114768;-76
2021/06/26 13:40:24;;;;;;;3.73;3.43;;;;;;;25.41;45.55;99938.08;255395;1104;115321;-73
2021/06/26 13:45:34;;;;;;;8.68;4.08;;;;;;;25.27;46.38;99940.24;256235;1104;116186;-73
2021/06/26 13:50:39;;;;;;;9.03;4.50;;;;;;;25.17;46.58;99933.21;257147;1104;115758;-75
2021/06/26 13:55:42;;;;;;;8.93;4.43;;;;;;;25.09;46.38;99937.56;256323;1104;115508;-78
2021/06/26 14:00:45;;;;;;;3.93;3.63;;;;;;;25.12;46.83;99928.73;257353;1104;114864;-75
2021/06/26 14:05:49;;;;;;;4.45;4.08;;;;;;;25.21;46.63;99933.36;255992;1104;114872;-73
2021/06/26 14:10:53;;;;;;;7.23;4.23;;;;;;;25.16;47.20;99937.06;254175;1104;116234;-76
2021/06/26 14:15:55;;;;;;;6.43;5.15;;;;;;;25.27;47.98;99937.52;255922;1104;115352;-82
2021/06/26 14:20:59;;;;;;;5.63;5.07;;;;;;;25.21;47.69;99938.82;257282;1104;116096;-75
2021/06/26 14:26:03;;;;;;;5.23;4.18;;;;;;;25.28;48.08;99933.66;257430;1104;114760;-76
2021/06/26 14:31:05;;;;;;;5.93;4.93;;;;;;;25.36;47.15;99932.83;254916;1103;116189;-74
2021/06/26 14:36:08;;;;;;;6.03;5.45;;;;;;;25.28;47.71;99936.39;254353;1098;117957;-77
2021/06/26 14:41:11;;;;;;;7.00;5.63;;;;;;;25.26;48.35;99947.63;254244;1103;115498;-77
2021/06/26 14:46:14;;;;;;;6.03;5.63;;;;;;;25.21;47.96;99947.00;254579;1104;115688;-76
2021/06/26 14:51:16;;;;;;;8.15;5.05;;;;;;;25.12;47.89;99952.48;254842;1104;115891;-77
2021/06/26 14:56:19;;;;;;;5.58;5.10;;;;;;;25.06;48.40;99948.36;254230;1104;116096;-76
2021/06/26 15:01:22;;;;;;;5.50;5.10;;;;;;;25.17;47.71;99944.92;254146;1104;116101;-78
2021/06/26 15:06:25;;;;;;;11.43;5.80;;;;;;;25.26;48.20;99946.83;254147;1103;115235;-78
2021/06/26 15:11:28;;;;;;;5.43;5.03;;;;;;;25.36;48.23;99951.93;255239;1104;115530;-75
2021/06/26 15:16:31;;;;;;;10.45;6.25;;;;;;;25.32;48.00;99946.33;254042;1098;116061;-77
2021/06/26 15:21:34;;;;;;;5.40;4.90;;;;;;;25.18;48.63;99943.00;254111;1098;115306;-73
2021/06/26 15:26:37;;;;;;;6.55;5.90;;;;;;;25.02;48.63;99944.67;254177;1104;115709;-74
2021/06/26 15:31:41;;;;;;;6.75;5.28;;;;;;;24.92;49.44;99937.60;256260;1104;115074;-73
2021/06/26 15:36:44;;;;;;;7.60;6.43;;;;;;;25.05;49.21;99936.64;254386;1104;205252;-73
2021/06/26 15:41:47;;;;;;;5.58;4.43;;;;;;;25.23;49.67;99933.84;254919;1104;116728;-73
2021/06/26 15:46:50;;;;;;;4.35;3.95;;;;;;;25.37;48.32;99926.25;257248;1104;114652;-74
2021/06/26 15:51:53;;;;;;;3.43;3.23;;;;;;;25.42;47.92;99909.66;257350;1104;115080;-74
2021/06/26 15:56:56;;;;;;;4.33;4.03;;;;;;;25.42;47.89;99912.39;257345;1104;115433;-73
2021/06/26 16:01:59;;;;;;;7.67;4.17;;;;;;;25.31;47.66;99906.52;257274;1104;115763;-74
2021/06/26 16:07:02;;;;;;;4.98;4.58;;;;;;;25.12;47.68;99906.11;254976;1104;117228;-73
2021/06/26 16:12:06;;;;;;;4.38;4.00;;;;;;;24.98;47.64;99902.81;254301;1104;115745;-73
2021/06/26 16:17:10;;;;;;;5.35;4.70;;;;;;;24.91;47.82;99895.09;254353;1104;115222;-73
2021/06/26 16:22:12;;;;;;;7.80;4.58;;;;;;;24.75;47.85;99902.22;254407;1103;115932;-71
2021/06/26 16:27:16;;;;;;;4.45;4.05;;;;;;;24.83;48.05;99904.09;254194;1100;115443;-77
2021/06/26 16:32:20;;;;;;;10.00;4.73;;;;;;;24.88;48.30;99898.47;254261;1100;115467;-75
2021/06/26 16:37:29;;;;;;;4.45;4.15;;;;;;;24.75;48.12;99894.04;254004;1100;115382;-73
2021/06/26 16:42:33;;;;;;;4.98;4.58;;;;;;;24.70;48.98;99905.11;255399;1104;115418;-79
2021/06/26 16:47:36;;;;;;;4.63;4.23;;;;;;;24.67;48.63;99898.38;257150;1104;115604;-78
2021/06/26 16:52:40;;;;;;;4.38;4.08;;;;;;;24.61;48.38;99894.22;255299;1104;117358;-76
2021/06/26 16:57:46;;;;;;;4.55;4.25;;;;;;;24.49;48.65;99891.34;257154;1103;114792;-77
2021/06/26 17:02:49;;;;;;;4.83;4.40;;;;;;;24.36;49.37;99901.32;256109;1104;115004;-77
2021/06/26 17:07:52;;;;;;;5.60;5.10;;;;;;;24.29;49.02;99897.47;254477;1104;115875;-76
2021/06/26 17:12:55;;;;;;;5.63;4.75;;;;;;;24.19;49.38;99898.56;254007;1104;115971;-76
2021/06/26 17:17:58;;;;;;;4.15;3.85;;;;;;;24.04;49.68;99897.13;255617;1104;117257;-75
2021/06/26 17:23:01;;;;;;;5.10;4.70;;;;;;;23.90;49.47;99901.92;254687;1098;115552;-76
2021/06/26 17:28:04;;;;;;;4.78;4.38;;;;;;;23.71;49.69;99904.95;254130;1103;115457;-75
2021/06/26 17:33:07;;;;;;;5.43;5.03;;;;;;;23.60;49.83;99911.80;254696;1104;115799;-75
2021/06/26 17:38:11;;;;;;;5.00;4.58;;;;;;;23.39;49.96;99902.60;254319;1104;116190;-72
2021/06/26 17:43:17;;;;;;;5.38;4.90;;;;;;;23.18;50.36;99908.63;254065;1104;116071;-72
2021/06/26 17:48:21;;;;;;;4.95;4.55;;;;;;;23.04;50.93;99902.47;257261;1104;116205;-76
2021/06/26 17:53:25;;;;;;;8.35;4.85;;;;;;;22.95;51.31;99912.48;255270;1104;116498;-75
2021/06/26 17:58:33;;;;;;;6.83;4.65;;;;;;;22.78;51.87;99909.70;254535;1104;117296;-75
2021/06/26 18:03:48;;;;;;;6.40;5.03;;;;;;;22.58;52.73;99905.56;255120;1104;115956;-74
2021/06/26 18:08:51;;;;;;;4.80;4.35;;;;;;;22.46;52.63;99916.17;257375;1103;117244;-77
2021/06/26 18:13:54;;;;;;;8.08;5.03;;;;;;;22.30;52.96;99910.33;257444;1104;115815;-79
2021/06/26 18:18:58;;;;;;;4.63;4.23;;;;;;;22.14;53.62;99911.78;257421;1104;116346;-75
2021/06/26 18:24:03;;;;;;;;;;;;;;;21.98;54.08;99924.08;257418;1104;115368;-74
2021/06/26 18:29:07;;;;;;;4.85;4.45;;;;;;;21.83;54.48;99926.00;257120;1103;102955;-75
2021/06/26 18:34:11;;;;;;;7.20;4.50;;;;;;;21.68;54.88;99926.34;254133;1104;117315;-74
2021/06/26 18:39:18;;;;;;;4.90;4.60;;;;;;;21.47;55.13;99927.84;257424;1104;116961;-76
2021/06/26 18:44:24;;;;;;;4.97;4.60;;;;;;;21.29;55.59;99942.32;257427;1104;115970;-76
2021/06/26 18:49:29;;;;;;;5.33;4.93;;;;;;;21.11;55.78;99944.77;255663;1104;115311;-77
2021/06/26 18:54:34;;;;;;;7.13;4.18;;;;;;;20.91;56.73;99945.14;257304;1104;115291;-81
2021/06/26 18:59:39;;;;;;;8.18;5.58;;;;;;;20.77;57.02;99965.99;254991;1104;116934;-77
2021/06/26 19:04:44;;;;;;;6.73;4.77;;;;;;;20.65;57.51;99960.22;254301;1104;115195;-74
2021/06/26 19:09:48;;;;;;;5.95;5.38;;;;;;;20.50;57.89;99961.25;254154;1104;116489;-72
2021/06/26 19:14:55;;;;;;;4.75;4.40;;;;;;;20.35;59.01;99973.11;254420;1100;118758;-77
2021/06/26 19:20:01;;;;;;;7.30;6.28;;;;;;;20.18;59.21;99975.50;256815;1104;115215;-79
2021/06/26 19:25:09;;;;;;;5.00;4.70;;;;;;;20.05;59.38;99987.07;254565;1104;115347;-77
2021/06/26 19:30:13;;;;;;;4.90;4.60;;;;;;;19.66;59.75;99979.97;256264;1103;117188;-78
2021/06/26 19:35:17;;;;;;;6.05;5.45;;;;;;;19.42;60.82;99982.66;255146;1104;115157;-76
2021/06/26 19:40:22;;;;;;;6.68;6.13;;;;;;;19.39;61.87;99991.34;256365;1099;115543;-73
2021/06/26 19:45:26;;;;;;;5.20;4.75;;;;;;;19.39;61.81;99990.53;254319;1104;115895;-74
2021/06/26 19:50:30;;;;;;;7.88;5.68;;;;;;;19.24;61.74;99988.00;255436;1104;117532;-80
2021/06/26 19:55:36;;;;;;;6.73;6.13;;;;;;;18.98;62.01;99996.31;254867;1098;115931;-76
2021/06/26 20:00:41;;;;;;;5.75;4.90;;;;;;;18.78;62.46;100005.41;257381;1103;117240;-72
2021/06/26 20:05:50;;;;;;;6.83;6.23;;;;;;;18.58;62.87;100012.83;257513;1103;116872;-77
2021/06/26 20:10:56;;;;;;;8.08;6.68;;;;;;;18.46;63.69;100011.27;257178;1104;116801;-78
2021/06/26 20:16:04;;;;;;;7.43;6.73;;;;;;;18.31;63.66;100010.58;257236;1103;117283;-79
2021/06/26 20:21:10;;;;;;;7.27;6.50;;;;;;;18.14;64.40;100011.73;257396;1104;117833;-79
2021/06/26 20:26:17;;;;;;;7.28;6.58;;;;;;;18.15;64.57;100015.23;257390;1103;115723;-77
2021/06/26 20:31:25;;;;;;;6.83;6.23;;;;;;;18.08;64.41;100009.33;257176;1104;116107;-80
2021/06/26 20:36:32;;;;;;;7.10;6.40;;;;;;;17.84;64.59;100015.38;257218;1104;116622;-77
2021/06/26 20:41:38;;;;;;;7.45;6.75;;;;;;;17.75;65.29;100021.59;257383;1104;116921;-79
2021/06/26 20:46:43;;;;;;;7.23;6.40;;;;;;;17.62;65.17;100017.58;257357;1103;115638;-73
2021/06/26 20:51:47;;;;;;;8.65;7.85;;;;;;;17.58;65.45;100029.98;257218;1104;115692;-72
2021/06/26 20:56:49;;;;;;;7.50;6.88;;;;;;;17.43;65.69;100021.92;257179;1104;115718;-74
2021/06/26 21:01:52;;;;;;;7.20;6.60;;;;;;;17.27;65.87;100015.77;255946;1104;116762;-72
2021/06/26 21:06:56;;;;;;;7.15;6.45;;;;;;;17.08;66.36;100020.11;254161;1099;115292;-73
2021/06/26 21:11:58;;;;;;;7.80;7.15;;;;;;;16.99;66.73;100017.14;256398;1104;115712;-72
2021/06/26 21:17:01;;;;;;;8.63;7.85;;;;;;;16.95;66.72;100020.64;254767;1104;115359;-73
2021/06/26 21:22:04;;;;;;;8.50;7.70;;;;;;;16.80;66.95;100011.50;254309;1104;115447;-73
2021/06/26 21:27:07;;;;;;;8.20;7.50;;;;;;;16.77;67.17;100003.15;255568;1104;115592;-72
2021/06/26 21:32:11;;;;;;;7.28;6.68;;;;;;;16.63;66.99;100010.91;257168;1104;115234;-71
2021/06/26 21:37:15;;;;;;;15.95;7.75;;;;;;;16.50;67.17;100012.25;254984;1104;115170;-72
2021/06/26 21:42:22;;;;;;;9.80;8.15;;;;;;;16.39;67.90;100005.22;255056;1104;117426;-72
2021/06/26 21:47:25;;;;;;;8.15;7.45;;;;;;;16.33;67.92;100008.97;254077;1100;116065;-73
2021/06/26 21:52:32;;;;;;;9.38;8.55;;;;;;;16.20;68.09;99990.66;254640;1104;116405;-72
2021/06/26 21:57:37;;;;;;;7.18;6.58;;;;;;;16.11;68.68;99990.36;254212;1104;115335;-73
2021/06/26 22:02:48;;;;;;;10.05;9.15;;;;;;;16.11;68.60;99990.36;255525;1104;114782;-74
2021/06/26 22:07:53;;;;;;;9.05;7.83;;;;;;;16.11;68.69;99993.05;253982;1100;115086;-73
2021/06/26 22:12:58;;;;;;;10.35;7.80;;;;;;;16.03;68.72;99982.80;254148;1103;115279;-75
2021/06/26 22:18:05;;;;;;;8.47;7.67;;;;;;;15.86;68.98;99984.09;257388;1104;115000;-74
2021/06/26 22:23:08;;;;;;;11.13;9.03;;;;;;;15.67;69.13;99989.92;257404;1104;116104;-72
2021/06/26 22:28:11;;;;;;;8.70;7.80;;;;;;;15.65;69.04;99989.37;257405;1104;116349;-72
2021/06/26 22:33:16;;;;;;;10.30;9.27;;;;;;;15.64;69.38;99993.13;257393;1104;116340;-73
2021/06/26 22:38:21;;;;;;;9.70;8.43;;;;;;;15.64;69.45;100003.88;257479;1104;116623;-72
2021/06/26 22:43:25;;;;;;;12.30;8.40;;;;;;;15.56;69.51;99996.33;257422;1104;117302;-71
2021/06/26 22:48:29;;;;;;;10.63;7.55;;;;;;;15.45;70.32;100002.67;257408;1104;116627;-72
2021/06/26 22:53:35;;;;;;;9.40;8.40;;;;;;;15.40;70.07;99991.89;257369;1104;117273;-72
2021/06/26 22:58:39;;;;;;;8.18;7.33;;;;;;;15.35;69.69;99989.98;257403;1104;116508;-73
2021/06/26 23:03:42;;;;;;;9.03;8.10;;;;;;;15.31;69.91;99985.39;257436;1104;115453;-71